createdAt,value
2017-11-16T00:01:47.569Z,21.28
2017-11-16T00:04:13.354Z,21.34
2017-11-16T00:06:40.049Z,21.33
2017-11-16T00:09:05.860Z,21.32
2017-11-16T00:11:32.433Z,21.31
2017-11-16T00:13:58.239Z,21.38
2017-11-16T00:16:24.833Z,21.31
2017-11-16T00:18:50.609Z,21.29
2017-11-16T00:21:16.380Z,21.32
2017-11-16T00:23:42.156Z,21.31
2017-11-16T00:26:08.924Z,21.29
2017-11-16T00:28:34.735Z,21.32
2017-11-16T00:31:01.500Z,21.34
2017-11-16T00:33:28.218Z,21.23
2017-11-16T00:35:54.895Z,21.21
2017-11-16T00:38:20.683Z,21.28
2017-11-16T00:40:46.544Z,21.29
2017-11-16T00:43:13.266Z,21.36
2017-11-16T00:45:39.050Z,21.34
2017-11-16T00:48:05.837Z,21.32
2017-11-16T00:50:31.617Z,21.31
2017-11-16T00:52:58.452Z,21.26
2017-11-16T00:55:24.220Z,21.29
2017-11-16T00:57:50.921Z,21.34
2017-11-16T01:00:17.620Z,21.34
2017-11-16T01:02:43.403Z,21.35
2017-11-16T01:05:10.088Z,21.34
2017-11-16T01:07:35.861Z,21.28
2017-11-16T01:10:02.194Z,21.23
2017-11-16T01:12:27.965Z,21.33
2017-11-16T01:14:54.621Z,21.35
2017-11-16T01:17:20.387Z,21.32
2017-11-16T01:19:54.295Z,21.35
2017-11-16T01:22:27.969Z,21.15
2017-11-16T01:24:53.785Z,21.26
2017-11-16T01:27:20.416Z,21.22
2017-11-16T01:29:46.193Z,21.22
2017-11-16T01:32:12.945Z,21.25
2017-11-16T01:34:39.725Z,21.31
2017-11-16T01:37:05.505Z,21.33
2017-11-16T01:39:32.181Z,21.29
2017-11-16T01:41:58.917Z,21.23
2017-11-16T01:44:25.704Z,21.23
2017-11-16T01:46:51.469Z,21.29
2017-11-16T01:49:17.274Z,21.27
2017-11-16T01:51:43.905Z,21.28
2017-11-16T01:54:10.619Z,21.31
2017-11-16T01:56:36.389Z,21.37
2017-11-16T01:59:02.209Z,21.40
2017-11-16T02:01:27.990Z,21.37
2017-11-16T02:03:54.584Z,21.31
2017-11-16T02:06:20.353Z,21.31
2017-11-16T02:08:46.128Z,21.35
2017-11-16T02:11:11.904Z,21.34
2017-11-16T02:13:37.712Z,21.45
2017-11-16T02:16:03.487Z,21.43
2017-11-16T02:18:29.256Z,21.43
2017-11-16T02:20:55.038Z,21.31
2017-11-16T02:23:20.833Z,21.36
2017-11-16T02:25:46.624Z,21.28
2017-11-16T02:28:12.409Z,21.35
2017-11-16T02:30:38.213Z,21.39
2017-11-16T02:33:04.013Z,21.37
2017-11-16T02:35:29.797Z,21.38
2017-11-16T02:37:55.580Z,21.39
2017-11-16T02:40:21.362Z,21.45
2017-11-16T02:42:47.145Z,21.33
2017-11-16T02:45:12.922Z,21.35
2017-11-16T02:47:38.704Z,21.38
2017-11-16T02:50:04.480Z,21.42
2017-11-16T02:52:30.252Z,21.44
2017-11-16T02:54:56.041Z,21.39
2017-11-16T02:57:21.861Z,21.43
2017-11-16T02:59:47.656Z,21.30
2017-11-16T03:02:13.437Z,21.25
2017-11-16T03:04:39.284Z,21.36
2017-11-16T03:07:05.064Z,21.38
2017-11-16T03:09:30.839Z,21.42
2017-11-16T03:11:56.629Z,21.36
2017-11-16T03:14:22.411Z,21.27
2017-11-16T03:16:48.185Z,21.32
2017-11-16T03:19:13.961Z,21.31
2017-11-16T03:21:39.771Z,21.35
2017-11-16T03:24:05.550Z,21.39
2017-11-16T03:26:31.336Z,21.38
2017-11-16T03:28:57.125Z,21.39
2017-11-16T03:31:22.937Z,21.31
2017-11-16T03:33:48.716Z,21.30
2017-11-16T03:36:14.482Z,21.33
2017-11-16T03:38:40.256Z,21.35
2017-11-16T03:41:06.036Z,21.34
2017-11-16T03:43:31.850Z,21.30
2017-11-16T03:45:57.627Z,21.34
2017-11-16T03:48:23.484Z,21.27
2017-11-16T03:50:49.272Z,21.33
2017-11-16T03:53:15.110Z,21.21
2017-11-16T03:55:40.900Z,21.22
2017-11-16T03:58:06.681Z,21.28
2017-11-16T04:00:32.493Z,21.35
2017-11-16T04:02:58.270Z,21.31
2017-11-16T04:05:24.073Z,21.27
2017-11-16T04:07:49.848Z,21.33
2017-11-16T04:10:15.668Z,21.31
2017-11-16T04:12:41.484Z,21.33
2017-11-16T04:15:07.308Z,21.35
2017-11-16T04:17:33.090Z,21.38
2017-11-16T04:19:58.905Z,21.26
2017-11-16T04:22:25.733Z,21.41
2017-11-16T04:24:51.556Z,21.35
2017-11-16T04:27:17.328Z,21.40
2017-11-16T04:29:43.108Z,21.42
2017-11-16T04:32:08.886Z,21.29
2017-11-16T04:34:34.669Z,21.26
2017-11-16T04:37:00.527Z,21.39
2017-11-16T04:39:26.341Z,21.36
2017-11-16T04:41:52.125Z,21.38
2017-11-16T04:44:17.901Z,21.42
2017-11-16T04:46:43.677Z,21.36
2017-11-16T04:49:09.513Z,21.29
2017-11-16T04:51:35.325Z,21.25
2017-11-16T04:54:01.105Z,21.32
2017-11-16T04:56:26.878Z,21.43
2017-11-16T04:58:52.693Z,21.42
2017-11-16T05:01:18.480Z,21.36
2017-11-16T05:03:44.297Z,21.32
2017-11-16T05:06:10.074Z,21.31
2017-11-16T05:08:35.856Z,21.27
2017-11-16T05:11:01.657Z,21.29
2017-11-16T05:13:27.437Z,21.35
2017-11-16T05:15:53.208Z,21.40
2017-11-16T05:18:18.982Z,21.37
2017-11-16T05:20:44.764Z,21.35
2017-11-16T05:23:10.542Z,21.28
2017-11-16T05:25:36.349Z,21.26
2017-11-16T05:28:02.125Z,21.30
2017-11-16T05:30:27.900Z,21.31
2017-11-16T05:32:53.672Z,21.36
2017-11-16T05:35:19.492Z,21.27
2017-11-16T05:37:45.265Z,21.33
2017-11-16T05:40:11.061Z,21.22
2017-11-16T05:42:36.837Z,21.29
2017-11-16T05:45:02.620Z,21.29
2017-11-16T05:47:28.433Z,21.35
2017-11-16T05:49:54.214Z,21.37
2017-11-16T05:52:19.999Z,21.40
2017-11-16T05:54:45.772Z,21.27
2017-11-16T05:57:11.552Z,21.33
2017-11-16T05:59:37.325Z,21.27
2017-11-16T06:02:03.093Z,21.27
2017-11-16T06:04:28.894Z,21.37
2017-11-16T06:06:54.673Z,21.33
2017-11-16T06:09:20.481Z,21.35
2017-11-16T06:11:46.269Z,21.37
2017-11-16T06:14:12.052Z,21.27
2017-11-16T06:16:37.825Z,21.37
2017-11-16T06:19:03.601Z,21.39
2017-11-16T06:21:29.378Z,21.31
2017-11-16T06:23:55.188Z,21.34
2017-11-16T06:26:20.965Z,21.28
2017-11-16T06:28:46.737Z,21.25
2017-11-16T06:31:12.521Z,21.26
2017-11-16T06:33:38.357Z,21.33
2017-11-16T06:36:04.181Z,21.32
2017-11-16T06:38:29.998Z,21.30
2017-11-16T06:40:55.780Z,21.22
2017-11-16T06:43:21.557Z,21.24
2017-11-16T06:45:47.346Z,21.29
2017-11-16T06:48:13.121Z,21.24
2017-11-16T06:50:38.945Z,21.32
2017-11-16T06:53:04.725Z,21.39
2017-11-16T06:55:30.508Z,21.35
2017-11-16T06:57:56.291Z,21.27
2017-11-16T07:00:22.088Z,21.36
2017-11-16T07:02:47.877Z,21.32
2017-11-16T07:05:13.670Z,21.31
2017-11-16T07:07:39.465Z,21.34
2017-11-16T07:10:05.258Z,21.40
2017-11-16T07:12:31.091Z,21.34
2017-11-16T07:14:56.878Z,21.39
2017-11-16T07:17:22.657Z,21.40
2017-11-16T07:19:48.439Z,21.38
2017-11-16T07:22:14.228Z,21.31
2017-11-16T07:24:40.022Z,21.33
2017-11-16T07:27:05.813Z,21.39
2017-11-16T07:29:31.621Z,21.38
2017-11-16T07:31:57.396Z,21.45
2017-11-16T07:34:23.213Z,21.41
2017-11-16T07:36:49.032Z,21.37
2017-11-16T07:39:14.814Z,21.37
2017-11-16T07:41:40.626Z,21.43
2017-11-16T07:44:06.413Z,21.35
2017-11-16T07:46:32.249Z,21.40
2017-11-16T07:48:58.043Z,21.39
2017-11-16T07:51:23.862Z,21.34
2017-11-16T07:53:49.655Z,21.34
2017-11-16T07:56:15.481Z,21.36
2017-11-16T07:58:41.262Z,21.29
2017-11-16T08:01:07.082Z,21.37
2017-11-16T08:03:32.870Z,21.38
2017-11-16T08:05:58.681Z,21.33
2017-11-16T08:08:24.449Z,21.34
2017-11-16T08:10:50.268Z,21.36
2017-11-16T08:13:16.089Z,21.37
2017-11-16T08:15:41.905Z,21.31
2017-11-16T08:18:07.714Z,21.27
2017-11-16T08:20:33.767Z,21.34
2017-11-16T08:22:59.550Z,21.31
2017-11-16T08:25:25.330Z,21.37
2017-11-16T08:27:51.109Z,21.36
2017-11-16T08:30:16.885Z,21.29
2017-11-16T08:32:42.670Z,21.40
2017-11-16T08:35:08.454Z,21.35
2017-11-16T08:37:34.278Z,21.33
2017-11-16T08:40:00.062Z,21.36
2017-11-16T08:42:25.867Z,21.38
2017-11-16T08:44:51.649Z,21.32
2017-11-16T08:47:17.478Z,21.32
2017-11-16T08:49:43.318Z,21.29
2017-11-16T08:52:09.117Z,21.33
2017-11-16T08:54:34.926Z,21.33
2017-11-16T08:57:00.720Z,21.35
2017-11-16T08:59:26.517Z,21.30
2017-11-16T09:01:52.333Z,21.31
2017-11-16T09:04:18.114Z,21.26
2017-11-16T09:06:43.903Z,21.35
2017-11-16T09:09:09.716Z,21.35
2017-11-16T09:11:35.502Z,21.34
2017-11-16T09:14:01.293Z,21.43
2017-11-16T09:16:27.080Z,21.37
2017-11-16T09:18:52.868Z,21.40
2017-11-16T09:21:18.660Z,21.42
2017-11-16T09:23:44.457Z,21.34
2017-11-16T09:26:10.291Z,21.30
2017-11-16T09:28:36.118Z,21.36
2017-11-16T09:31:01.912Z,21.38
2017-11-16T09:33:27.697Z,21.36
2017-11-16T09:35:53.465Z,21.37
2017-11-16T09:38:19.246Z,21.35
2017-11-16T09:40:45.020Z,21.36
2017-11-16T09:43:10.841Z,21.41
2017-11-16T09:45:36.621Z,21.34
2017-11-16T09:48:02.393Z,21.37
2017-11-16T09:50:28.172Z,21.39
2017-11-16T09:52:53.997Z,21.29
2017-11-16T09:55:19.803Z,21.35
2017-11-16T09:57:45.577Z,21.31
2017-11-16T10:00:11.396Z,21.39
2017-11-16T10:02:37.180Z,21.34
2017-11-16T10:05:03.102Z,21.33
2017-11-16T10:07:28.873Z,21.38
2017-11-16T10:09:54.649Z,21.38
2017-11-16T10:12:20.463Z,21.37
2017-11-16T10:14:46.235Z,21.29
2017-11-16T10:17:12.017Z,21.34
2017-11-16T10:19:37.796Z,21.35
2017-11-16T10:22:03.569Z,21.44
2017-11-16T10:24:29.341Z,21.39
2017-11-16T10:26:55.165Z,21.34
2017-11-16T10:29:20.940Z,21.35
2017-11-16T10:31:46.754Z,21.32
2017-11-16T10:34:12.525Z,21.37
2017-11-16T10:36:39.236Z,21.39
2017-11-16T10:39:05.028Z,21.33
2017-11-16T10:41:30.801Z,21.40
2017-11-16T10:43:56.598Z,21.35
2017-11-16T10:46:22.409Z,21.30
2017-11-16T10:48:48.193Z,21.39
2017-11-16T10:51:13.977Z,21.37
2017-11-16T10:53:39.757Z,21.37
2017-11-16T10:56:05.533Z,21.40
2017-11-16T10:58:31.310Z,21.38
2017-11-16T11:00:57.093Z,21.40
2017-11-16T11:03:22.873Z,21.45
2017-11-16T11:05:48.654Z,21.43
2017-11-16T11:08:14.440Z,21.43
2017-11-16T11:10:40.214Z,21.38
2017-11-16T11:13:05.989Z,21.48
2017-11-16T11:15:31.848Z,21.40
2017-11-16T11:17:57.621Z,21.41
2017-11-16T11:20:23.412Z,21.34
2017-11-16T11:22:49.185Z,21.44
2017-11-16T11:25:14.970Z,21.38
2017-11-16T11:27:40.745Z,21.35
2017-11-16T11:30:06.518Z,21.38
2017-11-16T11:32:32.332Z,21.41
2017-11-16T11:34:58.149Z,21.44
2017-11-16T11:37:23.981Z,21.40
2017-11-16T11:39:49.757Z,21.34
2017-11-16T11:42:15.533Z,21.41
2017-11-16T11:44:41.309Z,21.36
2017-11-16T11:47:07.122Z,21.38
2017-11-16T11:49:32.893Z,21.36
2017-11-16T11:51:58.694Z,21.40
2017-11-16T11:54:24.530Z,21.39
2017-11-16T11:56:50.313Z,21.39
2017-11-16T11:59:16.088Z,21.46
2017-11-16T12:01:42.028Z,21.43
2017-11-16T12:04:07.830Z,21.40
2017-11-16T12:06:33.625Z,21.45
2017-11-16T12:08:59.405Z,21.46
2017-11-16T12:11:25.176Z,21.42
2017-11-16T12:13:50.957Z,21.35
2017-11-16T12:16:16.772Z,21.36
2017-11-16T12:18:42.545Z,21.37
2017-11-16T12:21:08.334Z,21.37
2017-11-16T12:23:34.121Z,21.34
2017-11-16T12:25:59.957Z,21.37
2017-11-16T12:28:25.722Z,21.41
2017-11-16T12:30:51.539Z,21.35
2017-11-16T12:33:17.321Z,21.45
2017-11-16T12:35:43.100Z,21.33
2017-11-16T12:38:08.909Z,21.43
2017-11-16T12:40:34.693Z,21.48
2017-11-16T12:43:00.469Z,21.41
2017-11-16T12:45:26.253Z,21.36
2017-11-16T12:47:52.037Z,21.42
2017-11-16T12:50:17.825Z,21.38
2017-11-16T12:52:43.601Z,21.35
2017-11-16T12:55:09.386Z,21.41
2017-11-16T12:57:35.169Z,21.38
2017-11-16T13:00:00.957Z,21.30
2017-11-16T13:02:26.748Z,21.37
2017-11-16T13:04:52.523Z,21.39
2017-11-16T13:07:18.312Z,21.40
2017-11-16T13:09:44.096Z,21.37
2017-11-16T13:12:09.931Z,21.26
2017-11-16T13:14:35.709Z,21.25
2017-11-16T13:17:01.500Z,21.27
2017-11-16T13:19:27.291Z,21.34
2017-11-16T13:21:53.072Z,21.38
2017-11-16T13:24:18.849Z,21.42
2017-11-16T13:26:44.639Z,21.37
2017-11-16T13:29:10.412Z,21.36
2017-11-16T13:31:36.195Z,21.31
2017-11-16T13:34:01.974Z,21.33
2017-11-16T13:36:27.749Z,21.39
2017-11-16T13:38:53.530Z,21.33
2017-11-16T13:41:19.343Z,21.45
2017-11-16T13:43:45.122Z,21.42
2017-11-16T13:46:10.933Z,21.39
2017-11-16T13:48:36.710Z,21.35
2017-11-16T13:51:02.527Z,21.43
2017-11-16T13:53:28.337Z,21.39
2017-11-16T13:55:54.128Z,21.41
2017-11-16T13:58:19.908Z,21.44
2017-11-16T14:00:45.705Z,21.47
2017-11-16T14:03:11.474Z,21.43
2017-11-16T14:05:37.285Z,21.33
2017-11-16T14:08:03.073Z,21.40
2017-11-16T14:10:28.855Z,21.40
2017-11-16T14:12:54.634Z,21.39
2017-11-16T14:15:20.455Z,21.38
2017-11-16T14:17:46.243Z,21.34
2017-11-16T14:20:12.021Z,21.42
2017-11-16T14:22:37.829Z,21.38
2017-11-16T14:25:03.609Z,21.33
2017-11-16T14:27:30.354Z,21.35
2017-11-16T14:29:56.137Z,21.37
2017-11-16T14:32:21.949Z,21.36
2017-11-16T14:34:47.734Z,21.41
2017-11-16T14:37:13.526Z,21.39
2017-11-16T14:39:39.303Z,21.45
2017-11-16T14:42:05.087Z,21.29
2017-11-16T14:44:30.868Z,21.29
2017-11-16T14:46:56.642Z,21.35
2017-11-16T14:49:29.373Z,21.31
2017-11-16T14:51:55.157Z,21.31
2017-11-16T14:54:20.969Z,21.34
2017-11-16T14:56:46.748Z,21.33
2017-11-16T14:59:12.517Z,21.40
2017-11-16T15:01:38.297Z,21.37
2017-11-16T15:04:04.074Z,21.35
2017-11-16T15:06:29.852Z,21.39
2017-11-16T15:08:55.636Z,21.39
2017-11-16T15:11:21.408Z,21.33
2017-11-16T15:13:47.193Z,21.37
2017-11-16T15:16:12.974Z,21.31
2017-11-16T15:18:38.750Z,21.38
2017-11-16T15:21:04.523Z,21.42
2017-11-16T15:23:30.311Z,21.38
2017-11-16T15:25:56.096Z,21.37
2017-11-16T15:28:21.879Z,21.41
2017-11-16T15:30:47.665Z,21.34
2017-11-16T15:33:13.452Z,21.36
2017-11-16T15:35:39.230Z,21.32
2017-11-16T15:38:05.015Z,21.30
2017-11-16T15:40:30.806Z,21.32
2017-11-16T15:42:56.598Z,21.36
2017-11-16T15:45:22.383Z,21.47
2017-11-16T15:47:48.203Z,21.46
2017-11-16T15:50:14.040Z,21.49
2017-11-16T15:52:39.833Z,21.36
2017-11-16T15:55:05.615Z,21.46
2017-11-16T15:57:31.547Z,21.37
2017-11-16T15:59:57.338Z,21.33
2017-11-16T16:02:23.122Z,21.42
2017-11-16T16:04:48.939Z,21.36
2017-11-16T16:07:14.765Z,21.43
2017-11-16T16:09:40.550Z,21.39
2017-11-16T16:12:06.355Z,21.47
2017-11-16T16:14:32.146Z,21.36
2017-11-16T16:16:57.953Z,21.36
2017-11-16T16:19:23.735Z,21.39
2017-11-16T16:21:49.550Z,21.34
2017-11-16T16:24:15.333Z,21.46
2017-11-16T16:26:41.122Z,21.34
2017-11-16T16:29:06.905Z,21.40
2017-11-16T16:31:32.682Z,21.40
2017-11-16T16:33:58.481Z,21.38
2017-11-16T16:36:24.263Z,21.32
2017-11-16T16:38:50.062Z,21.35
2017-11-16T16:41:15.842Z,21.36
2017-11-16T16:43:41.620Z,21.34
2017-11-16T16:46:07.416Z,21.43
2017-11-16T16:48:33.238Z,21.44
2017-11-16T16:50:59.029Z,21.42
2017-11-16T16:53:24.831Z,21.42
2017-11-16T16:55:50.649Z,21.39
2017-11-16T16:58:16.434Z,21.28
2017-11-16T17:00:42.253Z,21.35
2017-11-16T17:03:08.040Z,21.36
2017-11-16T17:05:33.829Z,21.43
2017-11-16T17:07:59.650Z,21.41
2017-11-16T17:10:25.492Z,21.41
2017-11-16T17:12:51.429Z,21.39
2017-11-16T17:15:17.365Z,21.29
2017-11-16T17:17:43.197Z,21.40
2017-11-16T17:20:09.009Z,21.40
2017-11-16T17:22:34.920Z,21.35
2017-11-16T17:25:00.788Z,21.33
2017-11-16T17:27:26.581Z,21.30
2017-11-16T17:29:52.373Z,21.37
2017-11-16T17:32:18.201Z,21.38
2017-11-16T17:34:50.947Z,21.44
2017-11-16T17:37:16.900Z,21.34
2017-11-16T17:39:42.684Z,21.33
2017-11-16T17:42:08.470Z,21.30
2017-11-16T17:44:34.314Z,21.37
2017-11-16T17:47:00.101Z,21.38
2017-11-16T17:49:25.930Z,21.37
2017-11-16T17:51:51.793Z,21.39
2017-11-16T17:54:18.308Z,21.41
2017-11-16T17:56:44.333Z,21.46
2017-11-16T17:59:10.756Z,21.43
2017-11-16T18:01:36.544Z,21.46
2017-11-16T18:04:02.382Z,21.35
2017-11-16T18:06:28.177Z,21.36
2017-11-16T18:08:53.955Z,21.35
2017-11-16T18:11:19.733Z,21.43
2017-11-16T18:13:45.502Z,21.36
2017-11-16T18:16:11.420Z,21.36
2017-11-16T18:18:37.217Z,21.39
2017-11-16T18:21:03.013Z,21.33
2017-11-16T18:23:28.817Z,21.38
2017-11-16T18:25:54.608Z,21.38
2017-11-16T18:28:20.415Z,21.33
2017-11-16T18:30:46.201Z,21.35
2017-11-16T18:33:12.002Z,21.41
2017-11-16T18:35:38.160Z,21.35
2017-11-16T18:38:04.086Z,21.39
2017-11-16T18:40:29.862Z,21.33
2017-11-16T18:42:55.635Z,21.35
2017-11-16T18:45:21.410Z,21.37
2017-11-16T18:47:47.210Z,21.39
2017-11-16T18:50:12.983Z,21.38
2017-11-16T18:52:38.759Z,21.36
2017-11-16T18:55:04.549Z,21.40
2017-11-16T18:57:30.321Z,21.44
2017-11-16T18:59:56.105Z,21.37
2017-11-16T19:02:21.918Z,21.28
2017-11-16T19:04:47.699Z,21.31
2017-11-16T19:07:13.485Z,21.32
2017-11-16T19:09:39.272Z,21.32
2017-11-16T19:12:05.085Z,21.29
2017-11-16T19:14:30.939Z,21.33
2017-11-16T19:16:56.721Z,21.29
2017-11-16T19:19:22.494Z,21.15
2017-11-16T19:21:48.290Z,21.25
2017-11-16T19:24:14.078Z,21.30
2017-11-16T19:26:39.859Z,21.17
2017-11-16T19:29:05.647Z,21.19
2017-11-16T19:31:31.517Z,21.19
2017-11-16T19:33:57.302Z,21.27
2017-11-16T19:36:23.086Z,21.32
2017-11-16T19:38:48.904Z,21.29
2017-11-16T19:41:14.694Z,21.29
2017-11-16T19:43:40.609Z,21.37
2017-11-16T19:46:06.389Z,21.35
2017-11-16T19:48:32.169Z,21.34
2017-11-16T19:50:57.949Z,21.34
2017-11-16T19:53:23.722Z,21.33
2017-11-16T19:55:49.498Z,21.31
2017-11-16T19:58:15.278Z,21.28
2017-11-16T20:00:41.056Z,21.31
2017-11-16T20:03:06.829Z,21.36
2017-11-16T20:05:32.622Z,21.35
2017-11-16T20:07:58.409Z,21.32
2017-11-16T20:10:24.185Z,21.33
2017-11-16T20:12:49.971Z,21.17
2017-11-16T20:15:15.754Z,21.20
2017-11-16T20:17:41.597Z,21.27
2017-11-16T20:20:07.418Z,21.23
2017-11-16T20:22:33.249Z,21.31
2017-11-16T20:24:59.083Z,21.29
2017-11-16T20:27:24.870Z,21.26
2017-11-16T20:29:50.658Z,21.13
2017-11-16T20:32:16.461Z,21.17
2017-11-16T20:34:42.251Z,21.15
2017-11-16T20:40:13.231Z,21.10
2017-11-16T20:45:46.422Z,21.09
2017-11-16T20:48:18.341Z,21.01
2017-11-16T20:50:50.350Z,20.99
2017-11-16T20:53:16.147Z,21.04
2017-11-16T20:55:41.951Z,21.14
2017-11-16T20:58:07.746Z,21.21
2017-11-16T21:00:33.551Z,21.19
2017-11-16T21:03:06.345Z,21.19
2017-11-16T21:05:32.134Z,21.01
2017-11-16T21:07:57.921Z,21.07
2017-11-16T21:10:23.751Z,21.05
2017-11-16T21:12:49.526Z,21.14
2017-11-16T21:15:15.307Z,21.11
2017-11-16T21:17:41.094Z,21.09
2017-11-16T21:20:06.883Z,21.15
2017-11-16T21:22:32.662Z,21.17
2017-11-16T21:24:58.437Z,21.03
2017-11-16T21:27:24.215Z,21.03
2017-11-16T21:29:50.000Z,21.02
2017-11-16T21:32:15.793Z,21.05
2017-11-16T21:34:41.578Z,21.08
2017-11-16T21:37:07.400Z,21.07
2017-11-16T21:39:33.204Z,21.09
2017-11-16T21:41:59.022Z,21.02
2017-11-16T21:44:24.865Z,21.01
2017-11-16T21:46:50.678Z,21.04
2017-11-16T21:49:16.468Z,21.04
2017-11-16T21:51:42.251Z,21.02
2017-11-16T21:54:08.045Z,21.03
2017-11-16T21:56:33.897Z,21.13
2017-11-16T21:58:59.674Z,21.15
2017-11-16T22:01:25.491Z,21.15
2017-11-16T22:03:51.353Z,21.15
2017-11-16T22:06:17.277Z,21.12
2017-11-16T22:08:43.089Z,21.12
2017-11-16T22:11:08.877Z,21.17
2017-11-16T22:13:34.886Z,21.09
2017-11-16T22:16:00.776Z,21.03
2017-11-16T22:18:26.685Z,21.09
2017-11-16T22:20:52.461Z,21.11
2017-11-16T22:23:18.316Z,21.14
2017-11-16T22:25:44.134Z,21.10
2017-11-16T22:28:10.061Z,21.12
2017-11-16T22:30:35.980Z,21.14
2017-11-16T22:33:01.927Z,21.07
2017-11-16T22:35:27.751Z,21.04
2017-11-16T22:37:53.685Z,21.08
2017-11-16T22:40:19.465Z,21.09
2017-11-16T22:42:45.553Z,21.14
2017-11-16T22:45:11.562Z,21.10
2017-11-16T22:47:37.340Z,21.06
2017-11-16T22:50:03.120Z,21.07
2017-11-16T22:52:28.905Z,20.99
2017-11-16T22:54:54.693Z,21.10
2017-11-16T22:57:20.477Z,21.11
2017-11-16T22:59:46.288Z,21.15
2017-11-16T23:02:12.067Z,21.09
2017-11-16T23:04:37.978Z,21.17
2017-11-16T23:07:03.850Z,21.06
2017-11-16T23:09:29.627Z,21.00
2017-11-16T23:11:55.409Z,21.07
2017-11-16T23:14:21.186Z,21.08
2017-11-16T23:16:47.011Z,21.05
2017-11-16T23:19:12.785Z,21.07
2017-11-16T23:21:38.601Z,21.14
2017-11-16T23:24:04.529Z,21.04
2017-11-16T23:26:30.369Z,20.97
2017-11-16T23:28:56.265Z,21.00
2017-11-16T23:31:22.050Z,21.08
2017-11-16T23:33:47.826Z,21.04
2017-11-16T23:36:13.606Z,21.04
2017-11-16T23:38:39.421Z,21.03
2017-11-16T23:41:05.205Z,21.00
2017-11-16T23:43:31.020Z,20.92
2017-11-16T23:45:56.797Z,20.96
2017-11-16T23:48:22.617Z,20.95
2017-11-16T23:50:48.399Z,20.94
2017-11-16T23:53:14.170Z,21.02
2017-11-16T23:55:39.976Z,20.98
2017-11-16T23:58:05.784Z,21.01
